Time;durP1;ratioP1;P1;durP2;ratioP2;P2;SDS_P1;SDS_P2;PMS_P1;PMS_P2;Temp;Humidity;BMP_temperature;BMP_pressure;BME280_temperature;BME280_humidity;BME280_pressure;Samples;Min_cycle;Max_cycle;Signal;HPM_P1;HPM_P2
2024/03/20 00:00:39;;;;;;;;;;;;;;;;;;2192909;67;1749;-17
2024/03/20 00:03:09;;;;;;;;;;;;;;;;;;2191807;67;1906;-17
2024/03/20 00:05:40;;;;;;;;;;;;;;;;;;2193448;59;2364;-18
2024/03/20 00:08:10;;;;;;;;;;;;;;;;;;2190404;67;2495;-17
2024/03/20 00:10:42;;;;;;;;;;;;;;;;;;2194863;58;1554;-17
2024/03/20 00:13:12;;;;;;;;;;;;;;;;;;2190760;59;1698;-17
2024/03/20 00:15:43;;;;;;;;;;;;;;;;;;2187810;59;1565;-17
2024/03/20 00:18:14;;;;;;;;;;;;;;;;;;2189879;67;1671;-17
2024/03/20 00:20:44;;;;;;;;;;;;;;;;;;2192804;67;1488;-17
2024/03/20 00:23:14;;;;;;;;;;;;;;;;;;2191700;59;1783;-17
2024/03/20 00:25:45;;;;;;;;;;;;;;;;;;2192337;67;1360;-17
2024/03/20 00:28:15;;;;;;;;;;;;;;;;;;2193600;67;2005;-17
2024/03/20 00:30:46;;;;;;;;;;;;;;;;;;2190406;67;1780;-17
2024/03/20 00:33:16;;;;;;;;;;;;;;;;;;2193522;67;1869;-17
2024/03/20 00:35:47;;;;;;;;;;;;;;;;;;2192249;67;1381;-17
2024/03/20 00:38:17;;;;;;;;;;;;;;;;;;2194570;58;1668;-17
2024/03/20 00:40:47;;;;;;;;;;;;;;;;;;2190015;59;2151;-17
2024/03/20 00:43:18;;;;;;;;;;;;;;;;;;2194416;67;1618;-17
2024/03/20 00:45:48;;;;;;;;;;;;;;;;;;2193102;59;1736;-17
2024/03/20 00:48:19;;;;;;;;;;;;;;;;;;2195051;58;1954;-17
2024/03/20 00:50:49;;;;;;;;;;;;;;;;;;2192160;66;1675;-17
2024/03/20 00:53:19;;;;;;;;;;;;;;;;;;2195098;67;1726;-17
2024/03/20 00:55:50;;;;;;;;;;;;;;;;;;2193648;67;1500;-17
2024/03/20 00:58:20;;;;;;;;;;;;;;;;;;2192988;59;1760;-17
2024/03/20 01:00:50;;;;;;;;;;;;;;;;;;2189348;67;1513;-17
2024/03/20 01:03:21;;;;;;;;;;;;;;;;;;2193780;59;2908;-17
2024/03/20 01:05:55;;;;;;;;;;;;;;;;;;2192450;59;1839;-19
2024/03/20 01:08:25;;;;;;;;;;;;;;;;;;2194363;59;1934;-20
2024/03/20 01:10:56;;;;;;;;;;;;;;;;;;2190006;59;1908;-20
2024/03/20 01:13:26;;;;;;;;;;;;;;;;;;2195512;58;1633;-20
2024/03/20 01:15:56;;;;;;;;;;;;;;;;;;2192608;59;1801;-20
2024/03/20 01:18:27;;;;;;;;;;;;;;;;;;2191376;67;1558;-20
2024/03/20 01:20:57;;;;;;;;;;;;;;;;;;2187355;59;1716;-20
2024/03/20 01:23:27;;;;;;;;;;;;;;;;;;2191406;59;1603;-20
2024/03/20 01:25:58;;;;;;;;;;;;;;;;;;2188663;67;1696;-20
2024/03/20 01:28:28;;;;;;;;;;;;;;;;;;2192386;67;1973;-20
2024/03/20 01:30:58;;;;;;;;;;;;;;;;;;2193179;67;1933;-17
2024/03/20 01:33:29;;;;;;;;;;;;;;;;;;2194634;67;2035;-17
2024/03/20 01:36:00;;;;;;;;;;;;;;;;;;2192707;67;1587;-17
2024/03/20 01:38:30;;;;;;;;;;;;;;;;;;2190058;59;1598;-20
2024/03/20 01:41:00;;;;;;;;;;;;;;;;;;2192368;59;1622;-20
2024/03/20 01:43:31;;;;;;;;;;;;;;;;;;2191663;67;1639;-19
2024/03/20 01:46:08;;;;;;;;;;;;;;;;;;2193122;59;1949;-19
2024/03/20 01:48:38;;;;;;;;;;;;;;;;;;2193074;59;1938;-20
2024/03/20 01:51:09;;;;;;;;;;;;;;;;;;2192755;59;1529;-20
2024/03/20 01:53:39;;;;;;;;;;;;;;;;;;2195344;66;1745;-19
2024/03/20 01:56:10;;;;;;;;;;;;;;;;;;2192545;67;1563;-30
2024/03/20 01:58:40;;;;;;;;;;;;;;;;;;2194648;66;1718;-20
2024/03/20 02:01:11;;;;;;;;;;;;;;;;;;2189747;67;2708;-20
2024/03/20 02:03:43;;;;;;;;;;;;;;;;;;2193514;59;1508;-20
2024/03/20 02:06:27;;;;;;;;;;;;;;;;;;2192843;67;1534;-19
2024/03/20 02:08:58;;;;;;;;;;;;;;;;;;2192910;59;2304;-19
2024/03/20 02:11:28;;;;;;;;;;;;;;;;;;2195067;59;1807;-20
2024/03/20 02:13:59;;;;;;;;;;;;;;;;;;2193417;58;1870;-20
2024/03/20 02:16:29;;;;;;;;;;;;;;;;;;2195736;66;1841;-25
2024/03/20 02:18:59;;;;;;;;;;;;;;;;;;2188742;67;1715;-19
2024/03/20 02:21:30;;;;;;;;;;;;;;;;;;2192021;59;1616;-20
2024/03/20 02:24:05;;;;;;;;;;;;;;;;;;2191912;66;1815;-20
2024/03/20 02:26:35;;;;;;;;;;;;;;;;;;2190696;67;1541;-20
2024/03/20 02:29:06;;;;;;;;;;;;;;;;;;2193050;67;2012;-20
2024/03/20 02:31:36;;;;;;;;;;;;;;;;;;2194450;66;1598;-19
2024/03/20 02:34:06;;;;;;;;;;;;;;;;;;2192301;67;2064;-19
2024/03/20 02:36:37;;;;;;;;;;;;;;;;;;2195401;67;1502;-20
2024/03/20 02:39:07;;;;;;;;;;;;;;;;;;2191966;59;2385;-20
2024/03/20 02:41:37;;;;;;;;;;;;;;;;;;2189485;67;1706;-20
2024/03/20 02:44:08;;;;;;;;;;;;;;;;;;2192809;67;1821;-17
2024/03/20 02:46:38;;;;;;;;;;;;;;;;;;2194341;59;1750;-17
2024/03/20 02:49:08;;;;;;;;;;;;;;;;;;2190166;59;1945;-17
2024/03/20 02:51:39;;;;;;;;;;;;;;;;;;2191225;67;1868;-19
2024/03/20 02:54:10;;;;;;;;;;;;;;;;;;2192286;67;1681;-20
2024/03/20 02:56:40;;;;;;;;;;;;;;;;;;2194167;67;1572;-19
2024/03/20 02:59:11;;;;;;;;;;;;;;;;;;2193067;67;1697;-19
2024/03/20 03:01:41;;;;;;;;;;;;;;;;;;2194524;67;1651;-19
2024/03/20 03:04:11;;;;;;;;;;;;;;;;;;2192163;67;1792;-20
2024/03/20 03:06:42;;;;;;;;;;;;;;;;;;2193515;67;1569;-20
2024/03/20 03:09:16;;;;;;;;;;;;;;;;;;2192828;59;1992;-19
2024/03/20 03:11:47;;;;;;;;;;;;;;;;;;2192077;59;1795;-19
2024/03/20 03:14:17;;;;;;;;;;;;;;;;;;2193477;58;1447;-19
2024/03/20 03:16:48;;;;;;;;;;;;;;;;;;2194361;67;1387;-20
2024/03/20 03:19:18;;;;;;;;;;;;;;;;;;2187723;67;1520;-20
2024/03/20 03:21:48;;;;;;;;;;;;;;;;;;2194863;59;1602;-19
2024/03/20 03:24:19;;;;;;;;;;;;;;;;;;2192738;67;1695;-20
2024/03/20 03:26:49;;;;;;;;;;;;;;;;;;2193300;66;1705;-20
2024/03/20 03:29:20;;;;;;;;;;;;;;;;;;2189733;67;2411;-20
2024/03/20 03:31:50;;;;;;;;;;;;;;;;;;2193603;67;1616;-22
2024/03/20 03:34:20;;;;;;;;;;;;;;;;;;2192725;59;1719;-20
2024/03/20 03:36:51;;;;;;;;;;;;;;;;;;2194937;58;1581;-19
2024/03/20 03:39:21;;;;;;;;;;;;;;;;;;2193252;59;1855;-19
2024/03/20 03:41:51;;;;;;;;;;;;;;;;;;2194120;67;1671;-19
2024/03/20 03:44:21;;;;;;;;;;;;;;;;;;2192587;67;1967;-19
2024/03/20 03:46:52;;;;;;;;;;;;;;;;;;2193810;59;2036;-19
2024/03/20 03:49:22;;;;;;;;;;;;;;;;;;2193643;59;2469;-19
2024/03/20 03:51:52;;;;;;;;;;;;;;;;;;2191964;59;1640;-20
2024/03/20 03:54:23;;;;;;;;;;;;;;;;;;2191931;59;1693;-27
2024/03/20 03:56:53;;;;;;;;;;;;;;;;;;2192704;67;1658;-20
2024/03/20 03:59:23;;;;;;;;;;;;;;;;;;2190475;59;1747;-20
2024/03/20 04:01:54;;;;;;;;;;;;;;;;;;2193367;67;1770;-20
2024/03/20 04:04:24;;;;;;;;;;;;;;;;;;2191453;66;1587;-20
2024/03/20 04:06:55;;;;;;;;;;;;;;;;;;2191965;59;1626;-20
2024/03/20 04:09:25;;;;;;;;;;;;;;;;;;2191593;67;1955;-20
2024/03/20 04:11:55;;;;;;;;;;;;;;;;;;2193350;59;1666;-20
2024/03/20 04:14:26;;;;;;;;;;;;;;;;;;2194474;58;1626;-20
2024/03/20 04:16:56;;;;;;;;;;;;;;;;;;2194467;66;1657;-20
2024/03/20 04:19:26;;;;;;;;;;;;;;;;;;2193451;67;1579;-20
2024/03/20 04:21:58;;;;;;;;;;;;;;;;;;2194431;59;1861;-20
2024/03/20 04:24:28;;;;;;;;;;;;;;;;;;2193167;59;1770;-20
2024/03/20 04:26:59;;;;;;;;;;;;;;;;;;2195008;59;1645;-20
2024/03/20 04:29:29;;;;;;;;;;;;;;;;;;2190126;67;1930;-20
2024/03/20 04:32:00;;;;;;;;;;;;;;;;;;2194644;67;1419;-20
2024/03/20 04:34:30;;;;;;;;;;;;;;;;;;2192575;59;2194;-20
2024/03/20 04:37:01;;;;;;;;;;;;;;;;;;2191808;58;1676;-20
2024/03/20 04:39:32;;;;;;;;;;;;;;;;;;2189745;59;1812;-20
2024/03/20 04:42:04;;;;;;;;;;;;;;;;;;2193973;67;1566;-20
2024/03/20 04:44:34;;;;;;;;;;;;;;;;;;2193743;59;1512;-19
2024/03/20 04:47:04;;;;;;;;;;;;;;;;;;2191431;59;2492;-20
2024/03/20 04:49:35;;;;;;;;;;;;;;;;;;2194283;59;1987;-20
2024/03/20 04:52:06;;;;;;;;;;;;;;;;;;2188827;66;1503;-20
2024/03/20 04:54:36;;;;;;;;;;;;;;;;;;2194649;67;1688;-20
2024/03/20 04:57:06;;;;;;;;;;;;;;;;;;2193064;67;1420;-20
2024/03/20 04:59:37;;;;;;;;;;;;;;;;;;2191793;67;1760;-19
2024/03/20 05:02:07;;;;;;;;;;;;;;;;;;2193261;67;1458;-20
2024/03/20 05:04:38;;;;;;;;;;;;;;;;;;2194273;67;1795;-20
2024/03/20 05:07:08;;;;;;;;;;;;;;;;;;2193018;66;1583;-20
2024/03/20 05:09:39;;;;;;;;;;;;;;;;;;2194078;66;1924;-19
2024/03/20 05:12:09;;;;;;;;;;;;;;;;;;2193265;66;1653;-20
2024/03/20 05:14:40;;;;;;;;;;;;;;;;;;2194983;67;1687;-20
2024/03/20 05:17:10;;;;;;;;;;;;;;;;;;2187901;67;2042;-20
2024/03/20 05:19:40;;;;;;;;;;;;;;;;;;2194142;67;1630;-20
2024/03/20 05:22:11;;;;;;;;;;;;;;;;;;2190360;59;1531;-20
2024/03/20 05:24:41;;;;;;;;;;;;;;;;;;2191902;59;1842;-20
2024/03/20 05:27:11;;;;;;;;;;;;;;;;;;2192852;67;1813;-20
2024/03/20 05:29:42;;;;;;;;;;;;;;;;;;2191511;67;1916;-20
2024/03/20 05:32:12;;;;;;;;;;;;;;;;;;2192597;67;1741;-20
2024/03/20 05:34:43;;;;;;;;;;;;;;;;;;2192102;67;2069;-20
2024/03/20 05:37:13;;;;;;;;;;;;;;;;;;2192924;66;1594;-20
2024/03/20 05:39:43;;;;;;;;;;;;;;;;;;2194508;59;1936;-20
2024/03/20 05:42:14;;;;;;;;;;;;;;;;;;2193513;67;1555;-20
2024/03/20 05:44:44;;;;;;;;;;;;;;;;;;2194366;59;1981;-20
2024/03/20 05:47:15;;;;;;;;;;;;;;;;;;2193096;58;1694;-20
2024/03/20 05:49:45;;;;;;;;;;;;;;;;;;2191518;59;1915;-20
2024/03/20 05:52:15;;;;;;;;;;;;;;;;;;2193500;67;1670;-20
2024/03/20 05:54:45;;;;;;;;;;;;;;;;;;2194226;67;1362;-20
2024/03/20 05:57:16;;;;;;;;;;;;;;;;;;2193221;59;2221;-20
2024/03/20 05:59:46;;;;;;;;;;;;;;;;;;2192397;59;1593;-20
2024/03/20 06:02:17;;;;;;;;;;;;;;;;;;2194482;59;1705;-20
2024/03/20 06:04:47;;;;;;;;;;;;;;;;;;2191925;67;1567;-20
2024/03/20 06:07:17;;;;;;;;;;;;;;;;;;2192150;59;1495;-20
2024/03/20 06:09:47;;;;;;;;;;;;;;;;;;2192500;59;2356;-20
2024/03/20 06:12:18;;;;;;;;;;;;;;;;;;2193695;58;1859;-20
2024/03/20 06:14:48;;;;;;;;;;;;;;;;;;2195065;58;1746;-20
2024/03/20 06:17:18;;;;;;;;;;;;;;;;;;2190861;67;1731;-20
2024/03/20 06:19:49;;;;;;;;;;;;;;;;;;2193967;67;1687;-20
2024/03/20 06:22:19;;;;;;;;;;;;;;;;;;2190871;59;1582;-20
2024/03/20 06:24:49;;;;;;;;;;;;;;;;;;2189541;59;2236;-20
2024/03/20 06:27:20;;;;;;;;;;;;;;;;;;2192069;67;1539;-19
2024/03/20 06:29:51;;;;;;;;;;;;;;;;;;2192827;67;2000;-20
2024/03/20 06:32:21;;;;;;;;;;;;;;;;;;2194371;59;1905;-20
2024/03/20 06:34:51;;;;;;;;;;;;;;;;;;2191325;67;1910;-20
2024/03/20 06:37:22;;;;;;;;;;;;;;;;;;2189954;59;1577;-20
2024/03/20 06:39:52;;;;;;;;;;;;;;;;;;2191116;59;1911;-19
2024/03/20 06:42:23;;;;;;;;;;;;;;;;;;2192605;67;1549;-20
2024/03/20 06:44:53;;;;;;;;;;;;;;;;;;2194336;59;1726;-20
2024/03/20 06:47:24;;;;;;;;;;;;;;;;;;2192740;59;1690;-20
2024/03/20 06:49:55;;;;;;;;;;;;;;;;;;2194135;67;1982;-20
2024/03/20 06:52:26;;;;;;;;;;;;;;;;;;2192174;67;1545;-20
2024/03/20 06:54:58;;;;;;;;;;;;;;;;;;2193144;59;2576;-20
2024/03/20 06:57:29;;;;;;;;;;;;;;;;;;2190234;67;1823;-20
2024/03/20 06:59:59;;;;;;;;;;;;;;;;;;2191434;67;2092;-20
2024/03/20 07:02:30;;;;;;;;;;;;;;;;;;2192251;67;2250;-20
2024/03/20 07:05:00;;;;;;;;;;;;;;;;;;2192717;59;2221;-20
2024/03/20 07:07:30;;;;;;;;;;;;;;;;;;2191320;59;2589;-20
2024/03/20 07:10:00;;;;;;;;;;;;;;;;;;2194853;58;2215;-20
2024/03/20 07:12:31;;;;;;;;;;;;;;;;;;2191705;67;2270;-20
2024/03/20 07:15:05;;;;;;;;;;;;;;;;;;2192113;58;2619;-21
2024/03/20 07:17:35;;;;;;;;;;;;;;;;;;2187363;59;4858;-20
2024/03/20 07:20:07;;;;;;;;;;;;;;;;;;2193418;67;2152;-20
2024/03/20 07:22:37;;;;;;;;;;;;;;;;;;2184369;59;2432;-20
2024/03/20 07:25:07;;;;;;;;;;;;;;;;;;2188037;67;2473;-20
2024/03/20 07:27:38;;;;;;;;;;;;;;;;;;2192129;67;1548;-20
2024/03/20 07:30:08;;;;;;;;;;;;;;;;;;2192814;67;2689;-20
2024/03/20 07:32:39;;;;;;;;;;;;;;;;;;2188627;67;2290;-20
2024/03/20 07:35:09;;;;;;;;;;;;;;;;;;2194415;59;2517;-21
2024/03/20 07:37:40;;;;;;;;;;;;;;;;;;2191875;58;1525;-20
2024/03/20 07:40:10;;;;;;;;;;;;;;;;;;2193401;59;2704;-20
2024/03/20 07:42:42;;;;;;;;;;;;;;;;;;2191358;66;1611;-21
2024/03/20 07:45:12;;;;;;;;;;;;;;;;;;2193805;59;2262;-21
2024/03/20 07:47:44;;;;;;;;;;;;;;;;;;2190753;59;2116;-21
2024/03/20 07:50:15;;;;;;;;;;;;;;;;;;2187514;59;2643;-21
2024/03/20 07:52:47;;;;;;;;;;;;;;;;;;2188548;59;2129;-21
2024/03/20 07:55:17;;;;;;;;;;;;;;;;;;2191634;59;2132;-21
2024/03/20 07:57:49;;;;;;;;;;;;;;;;;;2189887;59;2493;-21
2024/03/20 08:00:28;;;;;;;;;;;;;;;;;;2187986;67;1858;-21
2024/03/20 08:02:58;;;;;;;;;;;;;;;;;;2191640;67;1641;-21
2024/03/20 08:05:29;;;;;;;;;;;;;;;;;;2192528;67;1740;-21
2024/03/20 08:08:00;;;;;;;;;;;;;;;;;;2190663;59;1940;-20
2024/03/20 08:10:30;;;;;;;;;;;;;;;;;;2193405;59;1745;-21
2024/03/20 08:13:00;;;;;;;;;;;;;;;;;;2194799;58;2802;-20
2024/03/20 08:15:30;;;;;;;;;;;;;;;;;;2193385;58;1890;-21
2024/03/20 08:18:01;;;;;;;;;;;;;;;;;;2194087;59;1502;-20
2024/03/20 08:20:33;;;;;;;;;;;;;;;;;;2193093;59;2510;-20
2024/03/20 08:23:03;;;;;;;;;;;;;;;;;;2194574;59;1602;-20
2024/03/20 08:25:35;;;;;;;;;;;;;;;;;;2193871;59;1713;-21
2024/03/20 08:28:06;;;;;;;;;;;;;;;;;;2194062;59;1936;-21
2024/03/20 08:30:39;;;;;;;;;;;;;;;;;;2193250;67;1680;-21
2024/03/20 08:33:09;;;;;;;;;;;;;;;;;;2193969;59;1651;-20
2024/03/20 08:35:39;;;;;;;;;;;;;;;;;;2192555;59;1415;-25
2024/03/20 08:38:10;;;;;;;;;;;;;;;;;;2194879;58;1661;-20
2024/03/20 08:40:40;;;;;;;;;;;;;;;;;;2190409;59;1806;-21
2024/03/20 08:43:12;;;;;;;;;;;;;;;;;;2192752;59;2059;-21
2024/03/20 08:45:42;;;;;;;;;;;;;;;;;;2193118;59;1567;-20
2024/03/20 08:48:13;;;;;;;;;;;;;;;;;;2194674;58;1937;-20
2024/03/20 08:50:43;;;;;;;;;;;;;;;;;;2192473;59;2086;-20
2024/03/20 08:53:13;;;;;;;;;;;;;;;;;;2194707;59;1511;-20
2024/03/20 08:55:44;;;;;;;;;;;;;;;;;;2190337;67;1722;-21
2024/03/20 08:58:14;;;;;;;;;;;;;;;;;;2190082;67;1702;-21
2024/03/20 09:00:46;;;;;;;;;;;;;;;;;;2190458;66;1559;-21
2024/03/20 09:03:16;;;;;;;;;;;;;;;;;;2190847;67;1498;-20
2024/03/20 09:05:46;;;;;;;;;;;;;;;;;;2192440;67;1501;-21
2024/03/20 09:08:17;;;;;;;;;;;;;;;;;;2194128;67;1950;-21
2024/03/20 09:10:47;;;;;;;;;;;;;;;;;;2194136;58;1833;-21
2024/03/20 09:13:17;;;;;;;;;;;;;;;;;;2194535;59;1441;-21
2024/03/20 09:15:48;;;;;;;;;;;;;;;;;;2195322;58;1730;-21
2024/03/20 09:18:19;;;;;;;;;;;;;;;;;;2194774;66;1960;-20
2024/03/20 09:20:52;;;;;;;;;;;;;;;;;;2194251;67;1576;-21
2024/03/20 09:23:23;;;;;;;;;;;;;;;;;;2192074;59;1477;-21
2024/03/20 09:25:54;;;;;;;;;;;;;;;;;;2191151;67;1596;-21
2024/03/20 09:28:24;;;;;;;;;;;;;;;;;;2188723;67;1991;-21
2024/03/20 09:30:54;;;;;;;;;;;;;;;;;;2189749;67;1707;-21
2024/03/20 09:33:24;;;;;;;;;;;;;;;;;;2193067;59;1465;-21
2024/03/20 09:35:57;;;;;;;;;;;;;;;;;;2193085;67;1711;-21
2024/03/20 09:38:27;;;;;;;;;;;;;;;;;;2190870;59;1837;-21
2024/03/20 09:40:58;;;;;;;;;;;;;;;;;;2194939;59;1884;-21
2024/03/20 09:43:28;;;;;;;;;;;;;;;;;;2191504;59;1551;-21
2024/03/20 09:45:59;;;;;;;;;;;;;;;;;;2189949;59;1506;-20
2024/03/20 09:48:29;;;;;;;;;;;;;;;;;;2193117;58;1973;-21
2024/03/20 09:51:00;;;;;;;;;;;;;;;;;;2192436;59;2110;-21
2024/03/20 09:53:34;;;;;;;;;;;;;;;;;;2194236;59;2320;-20
2024/03/20 09:56:09;;;;;;;;;;;;;;;;;;2193742;59;1665;-21
2024/03/20 09:58:43;;;;;;;;;;;;;;;;;;2187368;59;1607;-21
2024/03/20 10:01:14;;;;;;;;;;;;;;;;;;2190838;67;1729;-21
2024/03/20 10:03:44;;;;;;;;;;;;;;;;;;2192015;59;1538;-21
2024/03/20 10:06:15;;;;;;;;;;;;;;;;;;2194123;67;1580;-21
2024/03/20 10:08:45;;;;;;;;;;;;;;;;;;2192458;67;1926;-21
2024/03/20 10:11:16;;;;;;;;;;;;;;;;;;2194645;58;1996;-19
2024/03/20 10:13:46;;;;;;;;;;;;;;;;;;2199047;53;2701;-24
2024/03/20 10:16:17;;;;;;;;;;;;;;;;;;2198685;59;1655;-24
2024/03/20 10:18:47;;;;;;;;;;;;;;;;;;2197417;59;1918;-24
2024/03/20 10:21:17;;;;;;;;;;;;;;;;;;2199323;66;1797;-24
2024/03/20 10:23:52;;;;;;;;;;;;;;;;;;2201014;59;1334;-24
2024/03/20 10:26:22;;;;;;;;;;;;;;;;;;2214234;66;1450;-24
2024/03/20 10:28:55;;;;;;;;;;;;;;;;;;2213058;66;1932;-24
2024/03/20 10:31:26;;;;;;;;;;;;;;;;;;2212147;59;1228;-24
2024/03/20 10:33:58;;;;;;;;;;;;;;;;;;2215071;58;1553;-24
2024/03/20 10:36:28;;;;;;;;;;;;;;;;;;2213559;66;2110;-24
2024/03/20 10:39:00;;;;;;;;;;;;;;;;;;2218080;58;1723;-24
2024/03/20 10:41:31;;;;;;;;;;;;;;;;;;2217215;58;1430;-24
2024/03/20 10:44:02;;;;;;;;;;;;;;;;;;2212042;66;2067;-24
2024/03/20 10:46:32;;;;;;;;;;;;;;;;;;2217751;58;1354;-24
2024/03/20 10:49:03;;;;;;;;;;;;;;;;;;2217651;58;1949;-24
2024/03/20 10:51:33;;;;;;;;;;;;;;;;;;2213584;66;1673;-24
2024/03/20 10:54:04;;;;;;;;;;;;;;;;;;2217405;66;1202;-24
2024/03/20 10:56:42;;;;;;;;;;;;;;;;;;2217345;66;1219;-24
2024/03/20 10:59:17;;;;;;;;;;;;;;;;;;2214255;66;1592;-24
2024/03/20 11:01:56;;;;;;;;;;;;;;;;;;2216774;66;2639;-22
2024/03/20 11:04:37;;;;;;;;;;;;;;;;;;2212961;66;1389;-22
2024/03/20 11:07:29;;;;;;;;;;;;;;;;;;2217465;58;1027;-22
2024/03/20 11:10:03;;;;;;;;;;;;;;;;;;2213863;58;1944;-22
2024/03/20 11:12:36;;;;;;;;;;;;;;;;;;2216981;66;1342;-22
2024/03/20 11:15:06;;;;;;;;;;;;;;;;;;2213981;58;1640;-22
2024/03/20 11:17:37;;;;;;;;;;;;;;;;;;2212121;66;1284;-22
2024/03/20 11:20:27;;;;;;;;;;;;;;;;;;2218342;66;1659;-22
2024/03/20 11:22:57;;;;;;;;;;;;;;;;;;2215093;58;1885;-22
2024/03/20 11:25:30;;;;;;;;;;;;;;;;;;2213293;66;1596;-22
2024/03/20 11:28:01;;;;;;;;;;;;;;;;;;2214785;66;1463;-22
2024/03/20 11:30:31;;;;;;;;;;;;;;;;;;2217710;66;1951;-22
2024/03/20 11:33:01;;;;;;;;;;;;;;;;;;2215889;66;1503;-22
2024/03/20 11:35:31;;;;;;;;;;;;;;;;;;2214494;58;2001;-22
2024/03/20 11:38:04;;;;;;;;;;;;;;;;;;2215418;58;1643;-22
2024/03/20 11:40:34;;;;;;;;;;;;;;;;;;2216629;58;2259;-22
2024/03/20 11:43:05;;;;;;;;;;;;;;;;;;2214233;66;1468;-22
2024/03/20 11:45:36;;;;;;;;;;;;;;;;;;2213024;58;1552;-22
2024/03/20 11:48:07;;;;;;;;;;;;;;;;;;2215036;58;2244;-22
2024/03/20 11:50:38;;;;;;;;;;;;;;;;;;2210747;59;1551;-22
2024/03/20 11:53:09;;;;;;;;;;;;;;;;;;2216754;58;1173;-24
2024/03/20 11:55:41;;;;;;;;;;;;;;;;;;2214033;66;1296;-22
2024/03/20 11:58:14;;;;;;;;;;;;;;;;;;2217644;66;1548;-22
2024/03/20 12:00:44;;;;;;;;;;;;;;;;;;2216323;66;1652;-24
2024/03/20 12:03:22;;;;;;;;;;;;;;;;;;2214855;66;1272;-24
2024/03/20 12:06:11;;;;;;;;;;;;;;;;;;2216471;66;1409;-24
2024/03/20 12:08:42;;;;;;;;;;;;;;;;;;2211208;66;2020;-22
2024/03/20 12:11:18;;;;;;;;;;;;;;;;;;2213592;66;1704;-21
2024/03/20 12:13:48;;;;;;;;;;;;;;;;;;2217077;58;1414;-21
2024/03/20 12:16:19;;;;;;;;;;;;;;;;;;2214643;66;1589;-21
2024/03/20 12:18:51;;;;;;;;;;;;;;;;;;2217418;66;1154;-21
2024/03/20 12:21:22;;;;;;;;;;;;;;;;;;2218271;58;1537;-21
2024/03/20 12:23:53;;;;;;;;;;;;;;;;;;2213330;59;1481;-23
2024/03/20 12:26:23;;;;;;;;;;;;;;;;;;2217926;66;1144;-22
2024/03/20 12:28:54;;;;;;;;;;;;;;;;;;2216632;66;1939;-22
2024/03/20 12:31:24;;;;;;;;;;;;;;;;;;2218189;58;1591;-22
2024/03/20 12:33:55;;;;;;;;;;;;;;;;;;2214197;58;1806;-21
2024/03/20 12:36:25;;;;;;;;;;;;;;;;;;2217914;66;1413;-21
2024/03/20 12:38:56;;;;;;;;;;;;;;;;;;2211400;58;1659;-22
2024/03/20 12:41:26;;;;;;;;;;;;;;;;;;2216408;58;1709;-22
2024/03/20 12:43:57;;;;;;;;;;;;;;;;;;2214073;66;1652;-22
2024/03/20 12:46:27;;;;;;;;;;;;;;;;;;2215241;58;2257;-24
2024/03/20 12:48:57;;;;;;;;;;;;;;;;;;2217546;58;1939;-23
2024/03/20 12:51:28;;;;;;;;;;;;;;;;;;2218385;66;1301;-24
2024/03/20 12:53:59;;;;;;;;;;;;;;;;;;2214251;66;1163;-24
2024/03/20 12:56:29;;;;;;;;;;;;;;;;;;2215597;66;1735;-24
2024/03/20 12:58:59;;;;;;;;;;;;;;;;;;2216528;66;1322;-24
2024/03/20 13:01:30;;;;;;;;;;;;;;;;;;2218082;66;2028;-22
2024/03/20 13:04:00;;;;;;;;;;;;;;;;;;2214961;66;1668;-22
2024/03/20 13:06:30;;;;;;;;;;;;;;;;;;2218544;66;1139;-22
2024/03/20 13:09:02;;;;;;;;;;;;;;;;;;2217432;66;1937;-22
2024/03/20 13:11:32;;;;;;;;;;;;;;;;;;2218790;58;1386;-22
2024/03/20 13:14:03;;;;;;;;;;;;;;;;;;2217498;58;2143;-21
2024/03/20 13:16:33;;;;;;;;;;;;;;;;;;2214684;66;2051;-21
2024/03/20 13:19:04;;;;;;;;;;;;;;;;;;2212138;66;1718;-22
2024/03/20 13:21:36;;;;;;;;;;;;;;;;;;2217760;66;1334;-22
2024/03/20 13:24:08;;;;;;;;;;;;;;;;;;2214789;58;1624;-22
2024/03/20 13:26:39;;;;;;;;;;;;;;;;;;2213672;66;1862;-22
2024/03/20 13:29:09;;;;;;;;;;;;;;;;;;2213807;66;1937;-22
2024/03/20 13:31:41;;;;;;;;;;;;;;;;;;2213504;66;1845;-22
2024/03/20 13:34:13;;;;;;;;;;;;;;;;;;2214554;58;1777;-24
2024/03/20 13:36:52;;;;;;;;;;;;;;;;;;2216629;66;1595;-24
2024/03/20 13:39:34;;;;;;;;;;;;;;;;;;2215682;58;1722;-22
2024/03/20 13:42:19;;;;;;;;;;;;;;;;;;2217288;66;1144;-22
2024/03/20 13:44:52;;;;;;;;;;;;;;;;;;2216844;58;1920;-22
2024/03/20 13:47:22;;;;;;;;;;;;;;;;;;2218661;58;1314;-22
2024/03/20 13:49:53;;;;;;;;;;;;;;;;;;2213476;66;1984;-22
2024/03/20 13:52:24;;;;;;;;;;;;;;;;;;2218485;66;1165;-24
2024/03/20 13:54:54;;;;;;;;;;;;;;;;;;2213875;66;1162;-24
2024/03/20 13:57:27;;;;;;;;;;;;;;;;;;2217635;66;1658;-24
2024/03/20 13:59:57;;;;;;;;;;;;;;;;;;2217398;66;1720;-24
2024/03/20 14:02:27;;;;;;;;;;;;;;;;;;2217634;66;1090;-24
2024/03/20 14:04:58;;;;;;;;;;;;;;;;;;2214410;66;1323;-24
2024/03/20 14:07:28;;;;;;;;;;;;;;;;;;2215245;66;1262;-24
2024/03/20 14:09:58;;;;;;;;;;;;;;;;;;2216542;66;2000;-24
2024/03/20 14:12:28;;;;;;;;;;;;;;;;;;2214196;66;1749;-24
2024/03/20 14:14:59;;;;;;;;;;;;;;;;;;2214216;58;1446;-24
2024/03/20 14:17:29;;;;;;;;;;;;;;;;;;2211496;66;1154;-24
2024/03/20 14:19:59;;;;;;;;;;;;;;;;;;2217109;66;1830;-24
2024/03/20 14:22:29;;;;;;;;;;;;;;;;;;2218037;58;1372;-24
2024/03/20 14:25:00;;;;;;;;;;;;;;;;;;2217093;66;1402;-24
2024/03/20 14:27:30;;;;;;;;;;;;;;;;;;2216246;66;1155;-24
2024/03/20 14:30:00;;;;;;;;;;;;;;;;;;2213260;66;1954;-24
2024/03/20 14:32:31;;;;;;;;;;;;;;;;;;2215331;66;1908;-24
2024/03/20 14:35:01;;;;;;;;;;;;;;;;;;2210793;66;1757;-24
2024/03/20 14:37:33;;;;;;;;;;;;;;;;;;2218969;58;1290;-24
2024/03/20 14:40:04;;;;;;;;;;;;;;;;;;2214711;58;1972;-24
2024/03/20 14:42:34;;;;;;;;;;;;;;;;;;2218960;66;1710;-24
2024/03/20 14:45:05;;;;;;;;;;;;;;;;;;2217289;58;1669;-24
2024/03/20 14:47:35;;;;;;;;;;;;;;;;;;2215479;58;1320;-24
2024/03/20 14:50:06;;;;;;;;;;;;;;;;;;2217531;66;1990;-24
2024/03/20 14:52:37;;;;;;;;;;;;;;;;;;2217869;66;1471;-24
2024/03/20 14:55:15;;;;;;;;;;;;;;;;;;2217430;66;1577;-24
2024/03/20 14:57:46;;;;;;;;;;;;;;;;;;2217382;66;2216;-22
2024/03/20 15:00:16;;;;;;;;;;;;;;;;;;2217540;66;2456;-22
2024/03/20 15:02:46;;;;;;;;;;;;;;;;;;2215149;66;1275;-22
2024/03/20 15:05:16;;;;;;;;;;;;;;;;;;2217660;66;1616;-22
2024/03/20 15:07:47;;;;;;;;;;;;;;;;;;2217573;66;1100;-22
2024/03/20 15:10:17;;;;;;;;;;;;;;;;;;2215616;58;1936;-22
2024/03/20 15:12:48;;;;;;;;;;;;;;;;;;2217139;58;1678;-22
2024/03/20 15:15:18;;;;;;;;;;;;;;;;;;2217924;58;1918;-22
2024/03/20 15:17:48;;;;;;;;;;;;;;;;;;2217324;59;1398;-22
2024/03/20 15:20:19;;;;;;;;;;;;;;;;;;2218587;58;1287;-22
2024/03/20 15:22:50;;;;;;;;;;;;;;;;;;2214807;58;1588;-22
2024/03/20 15:25:20;;;;;;;;;;;;;;;;;;2215788;66;2019;-21
2024/03/20 15:27:50;;;;;;;;;;;;;;;;;;2220700;58;2174;-21
2024/03/20 15:30:21;;;;;;;;;;;;;;;;;;2218459;58;1923;-21
2024/03/20 15:32:51;;;;;;;;;;;;;;;;;;2217168;58;1464;-21
2024/03/20 15:35:21;;;;;;;;;;;;;;;;;;2218089;58;1830;-21
2024/03/20 15:37:52;;;;;;;;;;;;;;;;;;2217949;58;1435;-24
2024/03/20 15:40:22;;;;;;;;;;;;;;;;;;2212736;58;3224;-23
2024/03/20 15:42:52;;;;;;;;;;;;;;;;;;2217376;66;1552;-23
2024/03/20 15:45:22;;;;;;;;;;;;;;;;;;2213812;58;2184;-23
2024/03/20 15:47:53;;;;;;;;;;;;;;;;;;2210809;59;2161;-23
2024/03/20 15:50:24;;;;;;;;;;;;;;;;;;2216670;58;2567;-23
2024/03/20 15:52:55;;;;;;;;;;;;;;;;;;2216028;58;2070;-23
2024/03/20 15:55:25;;;;;;;;;;;;;;;;;;2216881;58;2490;-23
2024/03/20 15:57:55;;;;;;;;;;;;;;;;;;2215807;58;2156;-23
2024/03/20 16:00:25;;;;;;;;;;;;;;;;;;2214320;58;2313;-23
2024/03/20 16:02:56;;;;;;;;;;;;;;;;;;2214980;58;1668;-23
2024/03/20 16:05:26;;;;;;;;;;;;;;;;;;2214802;66;1662;-23
2024/03/20 16:07:57;;;;;;;;;;;;;;;;;;2215933;58;1766;-23
2024/03/20 16:10:28;;;;;;;;;;;;;;;;;;2218932;58;1947;-23
2024/03/20 16:12:58;;;;;;;;;;;;;;;;;;2219032;58;1349;-23
2024/03/20 16:15:29;;;;;;;;;;;;;;;;;;2219882;58;2647;-23
2024/03/20 16:18:01;;;;;;;;;;;;;;;;;;2221011;58;2529;-29
2024/03/20 16:20:31;;;;;;;;;;;;;;;;;;2220094;58;1464;-23
2024/03/20 16:23:02;;;;;;;;;;;;;;;;;;2215690;66;1527;-23
2024/03/20 16:25:32;;;;;;;;;;;;;;;;;;2215102;58;1640;-23
2024/03/20 16:28:03;;;;;;;;;;;;;;;;;;2217507;66;1623;-23
2024/03/20 16:30:35;;;;;;;;;;;;;;;;;;2218257;58;2006;-23
2024/03/20 16:33:07;;;;;;;;;;;;;;;;;;2212114;66;1320;-22
2024/03/20 16:35:43;;;;;;;;;;;;;;;;;;2214775;58;2072;-23
2024/03/20 16:44:31;;;;;;;;;;;;;;;;;;2218487;58;1365;-22
2024/03/20 16:47:01;;;;;;;;;;;;;;;;;;2217754;58;1475;-22
2024/03/20 16:49:31;;;;;;;;;;;;;;;;;;2214699;58;1985;-23
2024/03/20 16:52:01;;;;;;;;;;;;;;;;;;2215682;66;1499;-23
2024/03/20 16:54:31;;;;;;;;;;;;;;;;;;2211549;66;1561;-22
2024/03/20 16:57:02;;;;;;;;;;;;;;;;;;2202122;58;2276;-22
2024/03/20 16:59:32;;;;;;;;;;;;;;;;;;2209282;58;2524;-22
2024/03/20 17:02:05;;;;;;;;;;;;;;;;;;2214585;58;2280;-22
2024/03/20 17:04:36;;;;;;;;;;;;;;;;;;2212197;58;1206;-22
2024/03/20 17:07:06;;;;;;;;;;;;;;;;;;2214737;66;1575;-23
2024/03/20 17:09:41;;;;;;;;;;;;;;;;;;2216307;66;2006;-23
2024/03/20 17:12:17;;;;;;;;;;;;;;;;;;2215797;58;1486;-23
2024/03/20 17:14:52;;;;;;;;;;;;;;;;;;2215034;58;2138;-23
2024/03/20 17:17:22;;;;;;;;;;;;;;;;;;2214696;66;1478;-23
2024/03/20 17:19:53;;;;;;;;;;;;;;;;;;2211570;58;2306;-23
2024/03/20 17:22:23;;;;;;;;;;;;;;;;;;2211639;53;1958;-24
2024/03/20 17:24:54;;;;;;;;;;;;;;;;;;2197471;59;2589;-24
2024/03/20 17:27:24;;;;;;;;;;;;;;;;;;2198202;59;1944;-23
2024/03/20 17:29:54;;;;;;;;;;;;;;;;;;2197159;58;4084;-23
2024/03/20 17:32:24;;;;;;;;;;;;;;;;;;2196168;58;2508;-23
2024/03/20 17:34:55;;;;;;;;;;;;;;;;;;2195373;59;2187;-23